Time;durP1;ratioP1;P1;durP2;ratioP2;P2;SDS_P1;SDS_P2;PMS_P1;PMS_P2;Temp;Humidity;BMP_temperature;BMP_pressure;BME280_temperature;BME280_humidity;BME280_pressure;Samples;Min_cycle;Max_cycle;Signal;HPM_P1;HPM_P2
2022/09/10 00:01:16;;;;;;;16.17;5.20;;;;;;;12.27;45.27;100540.09;5052817;28;20083;-70
2022/09/10 00:03:42;;;;;;;15.68;5.38;;;;;;;12.15;45.38;100531.41;5036384;28;20048;-70
2022/09/10 00:06:09;;;;;;;16.83;6.38;;;;;;;12.20;45.70;100533.66;5035724;28;20523;-70
2022/09/10 00:08:36;;;;;;;19.10;5.68;;;;;;;12.15;45.51;100534.09;5036188;28;20040;-71
2022/09/10 00:11:05;;;;;;;12.75;5.63;;;;;;;12.25;45.67;100534.06;5070390;28;20500;-70
2022/09/10 00:13:32;;;;;;;13.20;5.45;;;;;;;12.11;45.63;100535.38;5052653;28;20075;-71
2022/09/10 00:16:01;;;;;;;13.93;5.43;;;;;;;12.16;45.79;100534.94;5036263;28;20044;-70
2022/09/10 00:18:26;;;;;;;15.82;5.63;;;;;;;11.94;45.92;100536.13;5069637;28;20098;-71
2022/09/10 00:20:56;;;;;;;24.15;8.05;;;;;;;12.09;46.14;100545.31;5035738;28;20045;-71
2022/09/10 00:23:25;;;;;;;20.83;6.32;;;;;;;12.08;46.07;100535.66;5019336;28;20055;-71
2022/09/10 00:25:53;;;;;;;16.90;6.78;;;;;;;12.04;46.08;100534.25;5019371;28;20079;-70
2022/09/10 00:28:23;;;;;;;18.88;7.30;;;;;;;11.99;46.20;100539.22;5052369;28;20036;-70
2022/09/10 00:30:51;;;;;;;17.27;7.18;;;;;;;12.09;46.16;100537.34;5019426;28;20404;-70
2022/09/10 00:33:18;;;;;;;20.85;8.15;;;;;;;11.99;46.57;100536.53;5052286;28;20389;-70
2022/09/10 00:35:46;;;;;;;31.13;10.07;;;;;;;11.93;47.11;100540.59;5052491;28;20109;-70
2022/09/10 00:38:13;;;;;;;32.30;9.80;;;;;;;11.84;47.62;100543.28;5019421;28;20044;-70
2022/09/10 00:40:40;;;;;;;28.88;11.23;;;;;;;11.77;47.93;100547.53;5035739;28;20213;-71
2022/09/10 00:43:11;;;;;;;21.52;8.63;;;;;;;11.73;48.44;100540.81;5039115;28;20045;-71
2022/09/10 00:45:37;;;;;;;23.45;9.32;;;;;;;11.49;48.77;100556.34;5056338;28;20044;-71
2022/09/10 00:48:21;;;;;;;22.17;8.23;;;;;;;11.75;48.74;100550.31;5022915;28;20551;-70
2022/09/10 00:50:50;;;;;;;18.13;8.00;;;;;;;11.63;48.71;100547.97;5022836;28;20129;-70
2022/09/10 00:53:20;;;;;;;38.33;10.20;;;;;;;11.62;48.61;100555.09;5039763;28;20044;-70
2022/09/10 00:55:50;;;;;;;27.95;11.05;;;;;;;11.59;48.64;100554.53;5039365;28;20047;-70
2022/09/10 00:58:19;;;;;;;20.13;8.15;;;;;;;11.63;48.72;100558.59;5039651;28;20087;-70
2022/09/10 01:00:45;;;;;;;22.05;7.80;;;;;;;11.44;48.50;100561.28;5038993;28;20523;-70
2022/09/10 01:03:13;;;;;;;24.45;8.95;;;;;;;11.54;48.59;100554.97;5039194;28;20131;-70
2022/09/10 01:05:41;;;;;;;23.48;8.50;;;;;;;11.51;48.83;100554.41;5022697;28;20146;-70
2022/09/10 01:08:14;;;;;;;18.63;7.82;;;;;;;11.65;48.42;100554.81;5022563;28;20057;-70
2022/09/10 01:10:53;;;;;;;24.30;8.30;;;;;;;11.62;48.36;100554.25;5039449;28;20040;-71
2022/09/10 01:13:40;;;;;;;19.25;7.10;;;;;;;11.59;48.20;100538.56;5072327;28;20048;-70
2022/09/10 01:16:15;;;;;;;20.85;7.63;;;;;;;11.54;48.22;100544.31;5055359;28;20044;-71
2022/09/10 01:18:50;;;;;;;19.17;7.85;;;;;;;11.40;48.21;100563.38;5055524;28;20496;-70
2022/09/10 01:21:23;;;;;;;24.45;9.27;;;;;;;11.62;48.31;100559.56;5022330;28;20037;-70
2022/09/10 01:24:12;;;;;;;23.77;8.18;;;;;;;11.55;48.74;100545.13;5038847;28;20048;-70
2022/09/10 01:27:07;;;;;;;24.95;8.82;;;;;;;11.54;48.94;100568.25;5038926;28;20156;-70
2022/09/10 01:29:39;;;;;;;20.95;7.93;;;;;;;11.40;49.16;100544.75;5020207;28;20098;-71
2022/09/10 01:32:14;;;;;;;20.83;7.35;;;;;;;11.52;49.18;100561.38;5055440;28;20036;-71
2022/09/10 01:34:58;;;;;;;27.63;9.85;;;;;;;11.62;49.11;100559.56;5039591;28;20053;-70
2022/09/10 01:37:28;;;;;;;21.15;8.85;;;;;;;11.53;49.20;100563.09;5055157;28;20458;-70
2022/09/10 01:39:55;;;;;;;21.90;8.48;;;;;;;11.44;49.57;100569.25;5054996;28;20606;-70
2022/09/10 01:42:26;;;;;;;20.88;9.48;;;;;;;11.56;49.25;100574.25;5038558;28;20139;-71
2022/09/10 01:44:54;;;;;;;20.60;8.57;;;;;;;11.42;49.53;100564.03;5022167;28;20107;-71
2022/09/10 01:47:54;;;;;;;20.25;8.55;;;;;;;11.55;49.45;100563.75;5056454;28;20125;-71
2022/09/10 01:50:28;;;;;;;22.73;8.95;;;;;;;11.42;49.55;100557.91;5055028;28;20063;-70
2022/09/10 01:53:34;;;;;;;23.80;8.88;;;;;;;11.53;49.29;100566.56;5022229;28;20040;-71
2022/09/10 01:56:13;;;;;;;34.33;8.48;;;;;;;11.49;49.34;100565.19;5038423;28;20089;-71
2022/09/10 01:58:41;;;;;;;20.98;9.45;;;;;;;11.38;49.53;100559.16;5038001;28;20130;-70
2022/09/10 02:01:24;;;;;;;25.58;9.77;;;;;;;11.43;49.63;100567.56;5055965;28;20044;-70
2022/09/10 02:03:55;;;;;;;24.73;9.40;;;;;;;11.34;49.78;100566.59;5037889;28;20041;-70
2022/09/10 02:06:26;;;;;;;24.80;9.25;;;;;;;11.34;49.66;100565.75;5038151;28;20040;-71
2022/09/10 02:08:55;;;;;;;26.80;11.20;;;;;;;11.16;49.74;100562.09;5054574;28;20068;-71
2022/09/10 02:11:21;;;;;;;28.58;11.85;;;;;;;11.03;50.15;100554.41;5038209;28;20090;-71
2022/09/10 02:13:49;;;;;;;24.52;11.10;;;;;;;10.95;50.20;100564.03;5022013;28;20055;-70
2022/09/10 02:16:57;;;;;;;26.73;11.50;;;;;;;11.15;50.04;100565.72;5024376;28;20393;-72
2022/09/10 02:19:25;;;;;;;29.85;11.02;;;;;;;10.98;50.17;100566.44;5054719;28;20101;-71
2022/09/10 02:21:52;;;;;;;29.10;12.20;;;;;;;10.95;50.41;100564.88;5071019;28;20148;-71
2022/09/10 02:24:19;;;;;;;22.70;12.18;;;;;;;10.80;50.39;100554.78;5037989;28;20040;-71
2022/09/10 02:26:46;;;;;;;27.75;12.93;;;;;;;10.78;50.64;100562.06;5037722;28;20044;-70
2022/09/10 02:29:13;;;;;;;23.17;12.77;;;;;;;10.74;51.21;100558.84;5054187;28;20500;-71
2022/09/10 02:31:40;;;;;;;33.58;11.45;;;;;;;10.57;51.10;100562.16;5054262;28;20476;-71
2022/09/10 02:34:06;;;;;;;21.98;10.85;;;;;;;10.52;51.03;100563.53;5037739;28;20393;-71
2022/09/10 02:36:32;;;;;;;28.33;12.07;;;;;;;10.52;50.82;100555.56;5037347;28;20488;-71
2022/09/10 02:38:59;;;;;;;23.80;10.57;;;;;;;10.45;51.37;100554.41;5020897;28;20049;-70
2022/09/10 02:41:27;;;;;;;24.80;10.80;;;;;;;10.38;51.25;100548.78;5037800;28;20036;-70
2022/09/10 02:43:54;;;;;;;25.75;10.40;;;;;;;10.43;51.28;100556.34;5021059;28;20051;-71
2022/09/10 02:46:21;;;;;;;23.10;9.50;;;;;;;10.58;51.07;100555.84;5037302;28;20089;-70
2022/09/10 02:48:47;;;;;;;24.95;10.80;;;;;;;10.49;50.94;100559.31;5053994;28;20041;-71
2022/09/10 02:51:15;;;;;;;26.00;10.20;;;;;;;10.47;50.95;100560.44;5021285;28;20071;-70
2022/09/10 02:53:41;;;;;;;17.45;7.28;;;;;;;10.53;50.57;100567.88;5020499;28;20072;-71
2022/09/10 02:56:07;;;;;;;16.15;6.47;;;;;;;10.58;49.92;100566.47;5054024;28;20040;-71
2022/09/10 02:58:35;;;;;;;10.48;5.25;;;;;;;10.67;49.54;100564.84;5021380;28;20044;-70
2022/09/10 03:01:07;;;;;;;19.70;9.60;;;;;;;10.97;49.74;100568.25;5020780;28;20166;-71
2022/09/10 03:03:38;;;;;;;19.85;10.50;;;;;;;10.80;50.50;100568.91;5037216;28;20484;-70
2022/09/10 03:06:04;;;;;;;14.80;8.38;;;;;;;10.72;49.69;100563.44;5020430;28;20037;-71
2022/09/10 03:08:30;;;;;;;17.55;8.05;;;;;;;10.77;50.05;100560.38;5020570;28;20059;-70
2022/09/10 03:10:58;;;;;;;19.67;9.35;;;;;;;10.74;50.13;100565.97;5020634;28;20539;-71
2022/09/10 03:13:28;;;;;;;24.05;10.20;;;;;;;10.98;50.00;100569.09;5020594;28;20044;-71
2022/09/10 03:15:57;;;;;;;21.52;9.15;;;;;;;10.72;50.20;100567.91;5021019;28;20048;-71
2022/09/10 03:18:26;;;;;;;20.13;8.60;;;;;;;10.77;50.36;100565.69;5053470;28;20144;-71
2022/09/10 03:20:52;;;;;;;16.45;8.85;;;;;;;10.73;50.35;100561.63;5020449;28;20040;-70
2022/09/10 03:23:18;;;;;;;15.88;8.02;;;;;;;10.70;49.97;100554.75;5020056;28;20056;-71
2022/09/10 03:25:45;;;;;;;18.63;8.10;;;;;;;10.78;49.93;100562.88;5020470;28;20135;-72
2022/09/10 03:28:13;;;;;;;20.42;8.48;;;;;;;10.82;50.14;100560.81;5036981;28;20036;-72
2022/09/10 03:30:41;;;;;;;14.13;6.40;;;;;;;11.10;49.17;100563.50;5036977;28;20055;-72
2022/09/10 03:33:10;;;;;;;15.52;6.57;;;;;;;10.97;48.79;100562.09;5053472;28;20041;-71
2022/09/10 03:35:36;;;;;;;18.60;8.68;;;;;;;10.99;49.05;100568.97;5036519;28;20072;-72
2022/09/10 03:38:02;;;;;;;20.27;9.57;;;;;;;10.90;49.38;100569.75;5036464;28;20044;-72
2022/09/10 03:40:28;;;;;;;25.00;10.57;;;;;;;10.89;49.45;100567.25;5036246;28;20041;-71
2022/09/10 03:42:54;;;;;;;22.58;9.80;;;;;;;10.87;49.18;100569.22;5019932;28;20052;-72
2022/09/10 03:45:20;;;;;;;23.33;9.75;;;;;;;10.90;49.33;100566.28;5036231;28;20052;-71
2022/09/10 03:47:46;;;;;;;22.33;9.52;;;;;;;10.87;49.43;100564.72;5019740;28;20443;-71
2022/09/10 03:50:14;;;;;;;21.17;9.07;;;;;;;10.92;49.39;100559.00;5019985;28;20079;-71
2022/09/10 03:52:41;;;;;;;18.05;8.73;;;;;;;10.95;49.16;100558.72;5036546;28;20131;-70
2022/09/10 03:55:07;;;;;;;22.05;9.40;;;;;;;11.05;48.99;100559.56;5020166;28;20126;-70
2022/09/10 03:57:33;;;;;;;22.05;9.50;;;;;;;11.02;48.73;100558.06;5019716;28;20135;-70
2022/09/10 04:00:00;;;;;;;14.57;8.60;;;;;;;11.06;48.72;100563.91;5019616;28;20146;-71
2022/09/10 04:02:29;;;;;;;20.98;9.88;;;;;;;11.07;47.83;100565.59;5069481;28;20443;-70
2022/09/10 04:04:55;;;;;;;21.63;9.73;;;;;;;11.08;47.54;100575.25;5019784;28;20048;-71
2022/09/10 04:07:21;;;;;;;25.20;11.02;;;;;;;11.03;47.99;100566.84;5019447;28;20087;-71
2022/09/10 04:09:48;;;;;;;21.75;11.32;;;;;;;10.99;48.36;100578.75;5020099;28;20080;-72
2022/09/10 04:12:15;;;;;;;27.20;11.70;;;;;;;11.02;48.32;100575.81;5036350;28;20036;-72
2022/09/10 04:14:44;;;;;;;17.42;10.45;;;;;;;11.02;48.51;100576.66;5019988;28;20060;-71
2022/09/10 04:17:12;;;;;;;24.92;9.20;;;;;;;11.11;48.09;100577.63;5022844;28;20048;-71
2022/09/10 04:19:40;;;;;;;19.40;9.27;;;;;;;11.16;48.03;100583.38;5024343;28;20147;-70
2022/09/10 04:22:06;;;;;;;20.73;9.07;;;;;;;11.16;48.31;100575.41;5040214;28;20059;-71
2022/09/10 04:24:34;;;;;;;22.85;10.82;;;;;;;11.13;48.21;100579.16;5056809;28;20082;-71
2022/09/10 04:27:01;;;;;;;23.20;9.57;;;;;;;11.25;48.17;100579.88;5056352;28;20156;-71
2022/09/10 04:29:28;;;;;;;15.18;7.53;;;;;;;11.31;47.60;100585.50;5040240;28;20178;-71
2022/09/10 04:31:54;;;;;;;23.60;9.77;;;;;;;11.36;47.55;100585.06;5023439;28;20135;-71
2022/09/10 04:34:21;;;;;;;17.83;9.10;;;;;;;11.47;47.37;100584.94;5023411;28;20041;-71
2022/09/10 04:36:48;;;;;;;27.90;10.38;;;;;;;11.55;46.87;100590.38;5072950;28;20040;-70
2022/09/10 04:39:15;;;;;;;18.70;8.85;;;;;;;11.63;46.87;100587.88;5056380;28;20131;-71
2022/09/10 04:41:42;;;;;;;16.33;7.43;;;;;;;11.58;46.79;100590.09;5023161;28;20064;-70
2022/09/10 04:44:09;;;;;;;16.25;8.70;;;;;;;11.57;46.89;100594.59;5023775;28;20075;-71
2022/09/10 04:46:38;;;;;;;14.50;7.82;;;;;;;11.89;46.48;100596.94;5039827;28;20123;-71
2022/09/10 04:49:08;;;;;;;16.40;7.15;;;;;;;11.77;46.26;100598.94;5055857;28;20133;-71
2022/09/10 04:51:34;;;;;;;17.42;7.15;;;;;;;11.85;45.83;100599.03;5039447;28;20043;-71
2022/09/10 04:54:00;;;;;;;18.63;9.32;;;;;;;11.93;45.83;100586.84;5039339;28;20036;-71
2022/09/10 04:56:31;;;;;;;11.68;6.22;;;;;;;11.98;45.49;100588.09;5023934;28;20617;-71
2022/09/10 04:58:58;;;;;;;27.45;11.57;;;;;;;12.07;45.68;100592.56;5023135;28;20086;-68
2022/09/10 05:01:25;;;;;;;15.27;8.38;;;;;;;12.13;45.26;100597.28;5039737;28;20058;-68
2022/09/10 05:03:52;;;;;;;17.98;8.57;;;;;;;12.18;45.00;100600.38;5023047;28;20045;-69
2022/09/10 05:06:19;;;;;;;13.95;8.25;;;;;;;12.25;45.15;100592.66;5039240;28;20044;-70
2022/09/10 05:08:46;;;;;;;19.98;9.35;;;;;;;12.28;45.47;100587.88;5039985;28;20037;-68
2022/09/10 05:11:12;;;;;;;25.08;9.85;;;;;;;12.37;45.67;100594.16;5039328;28;20062;-68
2022/09/10 05:13:38;;;;;;;23.95;9.07;;;;;;;12.38;45.89;100594.00;5072246;28;20532;-68
2022/09/10 05:16:12;;;;;;;18.77;9.05;;;;;;;12.45;46.48;100594.25;5056032;28;20044;-68
2022/09/10 05:18:38;;;;;;;19.40;9.43;;;;;;;12.49;46.42;100584.97;5023550;28;20143;-68
2022/09/10 05:21:05;;;;;;;16.92;7.80;;;;;;;12.58;45.55;100587.59;5039408;28;20052;-69
2022/09/10 05:23:32;;;;;;;14.80;7.45;;;;;;;12.57;44.91;100596.59;5022811;28;20127;-69
2022/09/10 05:25:59;;;;;;;14.57;7.00;;;;;;;12.66;45.09;100602.84;5022727;28;20051;-69
2022/09/10 05:28:26;;;;;;;13.98;7.03;;;;;;;12.73;44.56;100602.09;5038099;28;20148;-69
2022/09/10 05:30:52;;;;;;;13.85;7.10;;;;;;;12.83;44.02;100602.91;5022125;28;20131;-69
2022/09/10 05:33:23;;;;;;;15.18;8.05;;;;;;;12.91;43.87;100600.34;5039633;28;20079;-69
2022/09/10 05:35:51;;;;;;;21.05;7.47;;;;;;;13.01;42.96;100609.13;5055610;28;20078;-69
2022/09/10 05:38:18;;;;;;;12.43;5.53;;;;;;;13.14;43.11;100606.13;5038646;28;20056;-69
2022/09/10 05:40:44;;;;;;;14.02;7.00;;;;;;;13.17;43.84;100603.16;5055597;28;20048;-70
2022/09/10 05:43:11;;;;;;;12.90;7.43;;;;;;;13.28;43.48;100608.25;5038493;28;20614;-70
2022/09/10 05:45:39;;;;;;;16.00;6.68;;;;;;;13.53;43.30;100597.66;5022239;28;20046;-70
2022/09/10 05:48:07;;;;;;;12.93;6.53;;;;;;;13.48;43.55;100605.28;5055333;28;20040;-81
2022/09/10 05:50:33;;;;;;;16.63;7.70;;;;;;;13.52;43.92;100608.47;5038406;28;20424;-71
2022/09/10 05:53:00;;;;;;;14.65;7.90;;;;;;;13.72;44.25;100599.31;5054453;28;20500;-71
2022/09/10 05:55:30;;;;;;;12.18;7.07;;;;;;;13.84;43.99;100608.75;5021566;28;20495;-71
2022/09/10 05:57:57;;;;;;;19.15;7.47;;;;;;;13.96;43.58;100606.69;5021970;28;20055;-71
2022/09/10 06:00:35;;;;;;;13.23;6.78;;;;;;;14.34;43.34;100600.94;5022448;28;20059;-71
2022/09/10 06:03:10;;;;;;;23.98;7.72;;;;;;;14.22;43.46;100602.19;5057261;28;20057;-71
2022/09/10 06:05:52;;;;;;;18.05;8.32;;;;;;;14.54;43.31;100599.72;5023401;28;20070;-70
2022/09/10 06:08:26;;;;;;;19.55;8.38;;;;;;;14.46;43.37;100600.50;5038854;28;20048;-70
2022/09/10 06:10:57;;;;;;;18.70;9.07;;;;;;;14.76;43.66;100596.47;5041029;28;20094;-72
2022/09/10 06:13:30;;;;;;;14.95;8.07;;;;;;;14.78;43.04;100573.06;5059658;28;20454;-69
2022/09/10 06:15:56;;;;;;;17.42;8.50;;;;;;;14.90;42.98;100594.00;5038070;28;20139;-72
2022/09/10 06:18:24;;;;;;;18.10;7.55;;;;;;;15.07;42.41;100600.22;5021729;28;20086;-71
2022/09/10 06:21:07;;;;;;;14.68;7.68;;;;;;;15.45;41.97;100602.38;5040329;28;20404;-71
2022/09/10 06:23:35;;;;;;;14.23;6.45;;;;;;;15.48;42.00;100602.03;5071957;28;20055;-70
2022/09/10 06:26:07;;;;;;;22.73;7.15;;;;;;;15.71;41.57;100603.06;5037664;28;20048;-71
2022/09/10 06:28:35;;;;;;;17.25;6.30;;;;;;;15.79;41.10;100603.03;5055150;28;20041;-74
2022/09/10 06:31:05;;;;;;;14.68;6.90;;;;;;;15.96;40.59;100599.34;5037659;28;20049;-71
2022/09/10 06:33:32;;;;;;;12.20;6.13;;;;;;;15.99;39.83;100587.47;5054949;28;20131;-68
2022/09/10 06:35:59;;;;;;;14.32;5.60;;;;;;;16.34;39.28;100606.66;5037812;28;20040;-68
2022/09/10 06:38:31;;;;;;;12.27;5.80;;;;;;;16.58;38.69;100608.44;5036330;28;20059;-69
2022/09/10 06:40:59;;;;;;;11.88;5.85;;;;;;;16.70;38.28;100607.91;5050986;28;20048;-70
2022/09/10 06:43:31;;;;;;;9.63;5.05;;;;;;;16.84;37.49;100593.75;5035816;28;20046;-69
2022/09/10 06:46:22;;;;;;;11.90;4.82;;;;;;;17.24;36.51;100614.19;5052548;28;20389;-69
2022/09/10 06:49:01;;;;;;;11.55;4.47;;;;;;;17.22;36.15;100608.13;5036422;28;20130;-69
2022/09/10 06:51:32;;;;;;;11.25;4.53;;;;;;;17.45;35.61;100611.72;5020296;28;20067;-69
2022/09/10 06:53:59;;;;;;;7.13;4.25;;;;;;;17.56;34.69;100610.50;5036674;28;20047;-69
2022/09/10 06:56:26;;;;;;;9.27;4.05;;;;;;;17.76;34.29;100600.94;5070567;28;20090;-69
2022/09/10 06:58:53;;;;;;;7.70;3.90;;;;;;;18.09;34.20;100602.28;5037500;28;20052;-69
2022/09/10 07:01:22;;;;;;;14.50;5.70;;;;;;;18.31;34.93;100598.72;5021480;28;20467;-69
2022/09/10 07:03:58;;;;;;;19.65;6.22;;;;;;;18.79;35.54;100592.78;5022842;28;20069;-70
2022/09/10 07:06:27;;;;;;;9.85;4.18;;;;;;;19.10;33.42;100592.53;5036555;28;20063;-70
2022/09/10 07:08:58;;;;;;;8.90;3.28;;;;;;;19.25;31.78;100596.84;5069886;28;20481;-69
2022/09/10 07:11:29;;;;;;;6.40;3.00;;;;;;;19.41;31.34;100591.28;5071267;28;20040;-70
2022/09/10 07:13:59;;;;;;;9.68;3.40;;;;;;;19.75;30.56;100587.88;5053925;28;20048;-69
2022/09/10 07:16:31;;;;;;;12.98;4.13;;;;;;;20.14;31.38;100592.78;5053997;28;20062;-69
2022/09/10 07:18:59;;;;;;;16.55;3.80;;;;;;;20.40;30.07;100585.72;5036763;28;20511;-69
2022/09/10 07:21:44;;;;;;;8.73;3.33;;;;;;;20.58;29.12;100579.75;5039134;28;20071;-69
2022/09/10 07:24:14;;;;;;;14.65;3.35;;;;;;;20.97;28.72;100580.00;5036660;28;20048;-70
2022/09/10 07:26:57;;;;;;;12.45;2.95;;;;;;;21.74;27.25;100586.63;5024756;28;20040;-69
2022/09/10 07:29:23;;;;;;;6.18;2.88;;;;;;;23.55;25.37;100583.66;5036756;28;20055;-70
2022/09/10 07:31:51;;;;;;;6.93;2.58;;;;;;;26.72;21.50;100588.97;5069824;28;20037;-70
2022/09/10 07:34:21;;;;;;;13.18;4.65;;;;;;;30.13;17.94;100588.66;5021376;28;20040;-72
2022/09/10 07:36:46;;;;;;;6.57;2.60;;;;;;;32.77;15.05;100590.75;5019898;28;20403;-73
2022/09/10 07:39:12;;;;;;;7.63;2.17;;;;;;;35.20;12.66;100577.19;5035218;28;20040;-73
2022/09/10 07:41:41;;;;;;;4.47;2.20;;;;;;;37.09;10.79;100587.19;5019123;28;20044;-72
2022/09/10 07:44:12;;;;;;;5.45;2.00;;;;;;;38.80;9.58;100582.97;5019291;28;20041;-73
2022/09/10 07:46:41;;;;;;;4.72;2.40;;;;;;;40.16;8.64;100575.59;5019513;28;20063;-72
2022/09/10 07:49:10;;;;;;;4.30;2.00;;;;;;;41.16;7.55;100582.25;5036371;28;20441;-73
2022/09/10 07:51:40;;;;;;;7.72;2.25;;;;;;;40.55;7.84;100571.69;5019904;28;20044;-74
2022/09/10 07:54:06;;;;;;;7.60;2.30;;;;;;;40.86;7.47;100566.66;5036404;28;20040;-73
2022/09/10 07:56:39;;;;;;;8.20;2.28;;;;;;;41.62;6.95;100564.50;5021710;28;20166;-73
2022/09/10 07:59:10;;;;;;;6.88;2.38;;;;;;;42.27;6.63;100560.91;5036272;28;20064;-73
2022/09/10 08:01:46;;;;;;;4.75;2.08;;;;;;;41.40;7.12;100554.50;5054618;28;20044;-73
2022/09/10 08:04:15;;;;;;;8.57;2.17;;;;;;;40.75;7.40;100553.44;5036528;28;20044;-74
2022/09/10 08:06:40;;;;;;;6.05;2.20;;;;;;;38.97;7.98;100546.88;5035857;28;20526;-74
2022/09/10 08:09:07;;;;;;;9.20;2.42;;;;;;;36.86;9.50;100547.53;5036050;28;20072;-74
2022/09/10 08:15:34;;;;;;;5.22;2.45;;;;;;;40.41;7.36;100540.47;5067386;28;20051;-74
2022/09/10 08:18:01;;;;;;;5.05;1.70;;;;;;;40.20;7.59;100537.56;5052647;28;20032;-73
2022/09/10 08:20:28;;;;;;;4.50;1.83;;;;;;;39.66;7.26;100532.75;5051372;28;20045;-73
2022/09/10 08:22:56;;;;;;;4.63;1.70;;;;;;;40.66;6.86;100527.56;5018979;28;20048;-73
2022/09/10 08:25:22;;;;;;;5.03;1.75;;;;;;;41.80;6.14;100535.28;5052805;28;20462;-73
2022/09/10 08:27:49;;;;;;;4.85;1.67;;;;;;;42.61;5.57;100530.56;5019586;28;20060;-73
2022/09/10 08:30:17;;;;;;;5.35;2.55;;;;;;;41.34;6.17;100525.19;5069034;28;20514;-73
2022/09/10 08:32:44;;;;;;;4.35;2.00;;;;;;;40.71;6.89;100522.66;5019391;28;20050;-73
2022/09/10 08:35:13;;;;;;;8.70;1.90;;;;;;;39.93;6.88;100523.25;5035783;28;20055;-74
2022/09/10 08:37:39;;;;;;;4.07;1.45;;;;;;;40.64;6.57;100516.78;5019671;28;20500;-73
2022/09/10 08:40:10;;;;;;;3.10;1.63;;;;;;;42.19;5.75;100520.75;5051935;28;20056;-73
2022/09/10 08:42:44;;;;;;;2.03;1.40;;;;;;;43.71;5.04;100521.66;5052695;28;20051;-74
2022/09/10 08:45:27;;;;;;;7.47;1.70;;;;;;;45.04;4.37;100515.13;5068865;28;20040;-74
2022/09/10 08:48:01;;;;;;;4.63;1.85;;;;;;;46.00;4.12;100508.31;5020027;28;20090;-73
2022/09/10 08:50:34;;;;;;;3.53;1.85;;;;;;;47.14;3.52;100510.63;5052450;28;20051;-73
2022/09/10 08:53:33;;;;;;;2.17;1.60;;;;;;;47.35;3.38;100510.09;5035744;28;20135;-74
2022/09/10 08:56:05;;;;;;;3.30;1.58;;;;;;;47.80;3.13;100506.22;5029953;28;20056;-74
2022/09/10 08:58:50;;;;;;;4.72;1.60;;;;;;;48.53;2.48;100501.28;5052116;28;20616;-73
2022/09/10 09:01:42;;;;;;;2.72;1.70;;;;;;;49.00;2.28;100503.25;5035793;28;20051;-73
2022/09/10 09:04:18;;;;;;;2.03;1.33;;;;;;;49.21;2.15;100500.53;5022318;28;20040;-73
2022/09/10 09:06:49;;;;;;;11.88;1.73;;;;;;;49.25;2.36;100495.72;5056281;28;20109;-73
2022/09/10 09:09:15;;;;;;;4.30;1.50;;;;;;;48.88;2.31;100481.81;5039055;28;20045;-73
2022/09/10 09:11:57;;;;;;;2.70;1.42;;;;;;;49.49;2.33;100483.72;5022477;28;20051;-73
2022/09/10 09:14:57;;;;;;;3.97;1.50;;;;;;;50.40;1.89;100495.22;5055534;28;20044;-73
2022/09/10 09:17:34;;;;;;;4.18;1.65;;;;;;;50.85;1.93;100473.75;5039271;28;20045;-74
2022/09/10 09:20:22;;;;;;;3.28;1.40;;;;;;;50.84;1.85;100474.94;5038853;28;20084;-73
2022/09/10 09:22:54;;;;;;;3.00;1.50;;;;;;;50.55;1.72;100479.84;5055255;28;20098;-74
2022/09/10 09:25:41;;;;;;;;;;;;;;;50.33;1.60;100471.78;5057232;28;20075;-73
2022/09/10 09:28:16;;;;;;;8.05;1.40;;;;;;;50.55;1.63;100477.00;5027561;28;20308;-73
2022/09/10 09:30:48;;;;;;;6.60;1.73;;;;;;;50.95;1.50;100472.09;5033593;28;20515;-73
2022/09/10 09:33:18;;;;;;;7.38;3.05;;;;;;;51.01;1.67;100468.44;5017914;28;20040;-73
2022/09/10 09:35:49;;;;;;;8.05;1.70;;;;;;;50.78;1.76;100459.59;5001404;28;20419;-73
2022/09/10 09:38:30;;;;;;;8.20;1.40;;;;;;;50.86;1.60;100454.72;5033913;28;20045;-73
2022/09/10 09:40:59;;;;;;;6.97;1.67;;;;;;;50.58;1.55;100455.56;5029200;28;20090;-73
2022/09/10 09:43:51;;;;;;;3.80;1.63;;;;;;;50.01;1.96;100456.84;5037752;28;20060;-73
2022/09/10 09:46:18;;;;;;;;;;;;;;;49.95;1.87;100438.59;5070799;28;20051;-75
2022/09/10 09:48:47;;;;;;;5.18;1.45;;;;;;;50.03;1.87;100446.72;5038260;28;19926;-73
2022/09/10 09:51:19;;;;;;;5.90;2.05;;;;;;;50.04;1.58;100437.03;5054893;28;20114;-72
2022/09/10 09:53:49;;;;;;;3.33;1.73;;;;;;;50.20;1.92;100440.28;5039280;28;20492;-72
2022/09/10 09:56:31;;;;;;;5.95;1.95;;;;;;;50.19;1.76;100432.97;5058089;28;20130;-70
2022/09/10 09:59:06;;;;;;;8.75;1.90;;;;;;;50.10;1.90;100438.22;5055049;28;20071;-71
2022/09/10 10:01:32;;;;;;;2.78;1.42;;;;;;;50.19;1.61;100427.31;5054661;28;20055;-70
2022/09/10 10:04:01;;;;;;;6.50;2.08;;;;;;;50.42;1.94;100415.63;5059095;28;20148;-73
2022/09/10 10:06:29;;;;;;;8.05;1.73;;;;;;;50.14;1.92;100407.97;5022206;28;20040;-70
2022/09/10 10:09:04;;;;;;;5.00;1.60;;;;;;;50.34;1.86;100416.84;5054558;28;20488;-71
2022/09/10 10:11:52;;;;;;;4.32;1.58;;;;;;;50.37;1.78;100411.19;5038211;28;20049;-71
2022/09/10 10:14:21;;;;;;;4.10;1.55;;;;;;;49.94;2.10;100412.38;5021359;28;20048;-72
2022/09/10 10:16:52;;;;;;;5.05;1.77;;;;;;;49.70;2.11;100401.88;5054341;28;20131;-72
2022/09/10 10:19:39;;;;;;;6.18;1.90;;;;;;;49.51;1.85;100404.25;5070684;28;20155;-72
2022/09/10 10:22:13;;;;;;;5.40;1.70;;;;;;;49.45;1.92;100398.19;5037401;28;20048;-72
2022/09/10 10:24:43;;;;;;;4.70;1.83;;;;;;;49.32;2.21;100385.66;5053969;28;20059;-71
2022/09/10 10:27:19;;;;;;;3.53;1.60;;;;;;;49.97;1.79;100399.44;5038229;28;20040;-70
2022/09/10 10:30:02;;;;;;;12.43;1.90;;;;;;;50.29;1.76;100398.25;5037467;28;20519;-70
2022/09/10 10:32:54;;;;;;;4.05;1.98;;;;;;;49.86;1.95;100390.16;5038177;28;20068;-70
2022/09/10 10:35:28;;;;;;;8.82;1.92;;;;;;;49.60;1.79;100391.34;5070509;28;20037;-70
2022/09/10 10:37:59;;;;;;;2.40;1.80;;;;;;;49.31;1.93;100389.69;5020874;28;20572;-70
2022/09/10 10:41:03;;;;;;;5.80;2.10;;;;;;;48.81;2.39;100385.84;5038341;28;20511;-80
2022/09/10 10:43:47;;;;;;;6.47;1.80;;;;;;;48.13;2.20;100377.34;5020309;28;20481;-69
2022/09/10 10:46:19;;;;;;;2.95;1.83;;;;;;;47.69;2.70;100375.75;5053305;28;20131;-69
2022/09/10 10:48:51;;;;;;;4.18;1.90;;;;;;;47.76;2.68;100367.34;5070364;28;20126;-70
2022/09/10 10:51:30;;;;;;;4.90;2.08;;;;;;;47.69;2.38;100375.75;5036979;28;20055;-70
2022/09/10 10:54:28;;;;;;;6.90;2.15;;;;;;;47.61;2.23;100366.41;5053630;28;20059;-73
2022/09/10 10:57:04;;;;;;;8.50;2.17;;;;;;;47.87;2.47;100356.97;5049611;28;20048;-73
2022/09/10 10:59:52;;;;;;;3.83;1.75;;;;;;;48.04;2.24;100347.88;5037502;28;20048;-71
2022/09/10 11:02:21;;;;;;;3.60;1.65;;;;;;;47.75;2.49;100346.03;5069897;28;20048;-72
2022/09/10 11:04:52;;;;;;;3.67;1.98;;;;;;;47.79;2.47;100341.22;5036893;28;20044;-70
2022/09/10 11:07:28;;;;;;;4.03;1.90;;;;;;;47.70;2.23;100332.28;5069819;28;20106;-70
2022/09/10 11:10:02;;;;;;;7.22;2.47;;;;;;;47.36;2.51;100329.53;5053106;28;20665;-72
2022/09/10 11:12:32;;;;;;;7.80;2.00;;;;;;;47.15;2.46;100322.84;5037052;28;20049;-72
2022/09/10 11:15:03;;;;;;;7.38;2.30;;;;;;;46.76;2.56;100321.59;5037043;28;20067;-68
2022/09/10 11:17:38;;;;;;;8.05;3.15;;;;;;;46.30;2.84;100325.78;5053526;28;20048;-69
2022/09/10 11:20:23;;;;;;;4.35;2.10;;;;;;;45.46;3.41;100316.75;5036961;28;20131;-72
2022/09/10 11:23:03;;;;;;;6.60;2.15;;;;;;;44.72;3.84;100320.09;5036785;28;20044;-68
2022/09/10 11:25:33;;;;;;;8.50;1.95;;;;;;;44.09;3.85;100302.63;5069234;28;20135;-70
2022/09/10 11:28:05;;;;;;;6.50;1.75;;;;;;;41.97;4.60;100297.00;5053363;28;20044;-69
2022/09/10 11:30:32;;;;;;;6.55;1.95;;;;;;;40.56;5.45;100308.72;5020315;28;20449;-68
2022/09/10 11:33:04;;;;;;;7.18;2.00;;;;;;;39.52;6.17;100292.13;5052838;28;20066;-69
2022/09/10 11:35:36;;;;;;;2.67;2.08;;;;;;;37.87;7.07;100276.97;5036390;28;20079;-69
2022/09/10 11:38:19;;;;;;;6.00;2.17;;;;;;;36.90;7.88;100293.75;5069745;28;20049;-69
2022/09/10 11:40:52;;;;;;;3.15;2.00;;;;;;;34.58;8.74;100281.28;5070920;28;20060;-69
2022/09/10 11:43:38;;;;;;;3.47;1.90;;;;;;;33.06;9.47;100258.66;5069577;28;20059;-69
2022/09/10 11:46:12;;;;;;;6.95;2.30;;;;;;;31.68;10.51;100274.59;5053235;28;20067;-69